Saurimo, Henrique de Carvalho Airport (FNSA)

NameHenrique de Carvalho Airport
CitySaurimo
CountryAngola
ICAOFNSA
IATAVHC
Altitude1092 m
CoordinatesGoogle Map
Live Air TrafficLiveATC.net
METARFNSA 191600Z 00000KT CAVOK 30/10 Q1017
2019-05-19 16:00:00 Wind: North (0°) 0 m/s - Visibility: > 10000 m - Weather: CAVOK - Temperature: 30 °C - Dew point: 10 °C - Humidity: 28.9% - Pressure: 1017 hPa
Statistics

The table below shows the detailed information of all flights to/from Saurimo, Henrique de Carvalho Airport (FNSA).

Ident Aircraft Coming fromFrom Going toTo Owner nameOwnerDate
D2-TBH - B737 - TAAG Angola Airlines DTA230 BOEING 737-700 B737 Luanda, Angola (FNLU) FNLU
19 km
Saurimo, Angola (FNSA) FNSA
777 km
Taag Angola Airlines Taag Angola Airlines Fri, 26 Apr 2019 08:44:38 +0000 26/4/2019 8:44 am
D2-TBH - B737 - TAAG Angola Airlines DTA230 BOEING 737-700 B737 Luanda, Angola (FNLU) FNLU
18 km
Saurimo, Angola (FNSA) FNSA
779 km
Taag Angola Airlines Taag Angola Airlines Sun, 14 Apr 2019 08:50:19 +0000 14/4/2019 8:50 am
D2-TBH - B737 - TAAG Angola Airlines DTA230 BOEING 737-700 B737 Luanda, Angola (FNLU) FNLU
45 km
Saurimo, Angola (FNSA) FNSA
755 km
Taag Angola Airlines Taag Angola Airlines Wed, 10 Apr 2019 09:00:52 +0000 10/4/2019 9:00 am
D2-TBG - B737 - TAAG Angola Airlines DT230 BOEING 737-700 B737 Luanda, Angola (FNLU) FNLU
26 km
Saurimo, Angola (FNSA) FNSA
769 km
Taag Angola Airlines Taag Angola Airlines Tue, 09 Apr 2019 09:05:24 +0000 9/4/2019 9:05 am